Time;durP1;ratioP1;P1;durP2;ratioP2;P2;SDS_P1;SDS_P2;PMS_P1;PMS_P2;Temp;Humidity;BMP_temperature;BMP_pressure;BME280_temperature;BME280_humidity;BME280_pressure;Samples;Min_cycle;Max_cycle;Signal;HPM_P1;HPM_P2
2021/05/04 00:01:34;;;;;;;5.80;3.23;;;12.40;93.90;;;;;;5071426;28;20193;-72
2021/05/04 00:03:59;;;;;;;4.27;2.97;;;12.50;93.60;;;;;;5090935;28;20558;-71
2021/05/04 00:06:25;;;;;;;4.17;3.77;;;12.50;93.60;;;;;;5083570;28;20202;-72
2021/05/04 00:08:51;;;;;;;4.37;2.97;;;12.50;93.60;;;;;;5077379;28;20174;-72
2021/05/04 00:11:17;;;;;;;6.60;3.30;;;12.50;93.50;;;;;;5071595;28;20538;-72
2021/05/04 00:13:42;;;;;;;4.07;2.87;;;12.50;93.90;;;;;;5071412;28;20208;-73
2021/05/04 00:16:08;;;;;;;2.90;2.67;;;12.50;93.60;;;;;;5071464;28;20165;-72
2021/05/04 00:18:33;;;;;;;4.83;3.30;;;12.40;93.40;;;;;;5071731;28;20166;-72
2021/05/04 00:20:59;;;;;;;4.50;2.80;;;12.60;93.40;;;;;;5071006;28;20196;-72
2021/05/04 00:23:25;;;;;;;2.87;2.67;;;12.60;93.60;;;;;;5071691;28;20199;-72
2021/05/04 00:25:51;;;;;;;4.80;2.90;;;12.60;93.80;;;;;;5061349;28;20188;-72
2021/05/04 00:28:17;;;;;;;4.77;2.80;;;12.60;93.60;;;;;;5071545;28;20458;-73
2021/05/04 00:30:42;;;;;;;4.80;2.17;;;12.60;93.50;;;;;;5076251;28;20431;-73
2021/05/04 00:33:08;;;;;;;10.97;2.70;;;12.60;93.50;;;;;;5076462;28;20195;-73
2021/05/04 00:35:33;;;;;;;3.10;2.40;;;12.70;93.10;;;;;;5077902;28;20213;-73
2021/05/04 00:37:59;;;;;;;2.93;2.20;;;12.60;93.10;;;;;;5088384;28;20196;-73
2021/05/04 00:40:24;;;;;;;2.23;2.03;;;12.80;92.90;;;;;;5092000;28;20184;-73
2021/05/04 00:42:50;;;;;;;7.77;2.40;;;12.70;93.00;;;;;;5067322;28;20178;-73
2021/05/04 00:45:16;;;;;;;6.33;2.50;;;12.70;93.10;;;;;;5086359;28;20689;-73
2021/05/04 00:47:41;;;;;;;3.50;2.27;;;12.70;93.30;;;;;;5093088;28;20212;-73
2021/05/04 00:50:07;;;;;;;2.80;2.60;;;12.70;93.10;;;;;;5079556;28;20200;-73
2021/05/04 00:52:33;;;;;;;3.37;2.30;;;12.70;93.10;;;;;;5075042;28;20252;-74
2021/05/04 00:54:59;;;;;;;5.43;2.27;;;12.80;93.20;;;;;;5078077;28;20439;-73
2021/05/04 00:57:24;;;;;;;3.03;2.67;;;12.80;93.60;;;;;;5090379;28;20290;-73
2021/05/04 00:59:52;;;;;;;2.57;2.37;;;12.70;92.90;;;;;;5060101;28;20269;-73
2021/05/04 01:02:19;;;;;;;3.30;2.13;;;12.80;93.10;;;;;;5076043;28;20166;-73
2021/05/04 01:04:46;;;;;;;4.60;3.23;;;12.70;93.10;;;;;;5074922;28;20802;-73
2021/05/04 01:07:11;;;;;;;4.20;2.13;;;12.70;93.30;;;;;;5073716;28;20466;-73
2021/05/04 01:09:37;;;;;;;3.87;2.17;;;12.70;93.40;;;;;;5082472;28;20427;-73
2021/05/04 01:12:03;;;;;;;4.50;1.70;;;12.80;93.60;;;;;;5092740;28;20173;-73
2021/05/04 01:14:29;;;;;;;2.90;2.30;;;12.80;93.40;;;;;;5059761;28;20209;-73
2021/05/04 01:16:55;;;;;;;4.90;2.40;;;12.80;93.20;;;;;;5076587;28;20947;-73
2021/05/04 01:19:22;;;;;;;3.70;2.27;;;12.80;93.50;;;;;;5082448;28;20533;-73
2021/05/04 01:21:48;;;;;;;2.43;2.00;;;12.80;93.40;;;;;;5061495;28;20424;-73
2021/05/04 01:24:15;;;;;;;3.80;1.93;;;12.80;93.10;;;;;;5082603;28;20448;-73
2021/05/04 01:26:42;;;;;;;2.37;2.20;;;12.80;93.30;;;;;;5089485;28;20485;-73
2021/05/04 01:29:08;;;;;;;2.17;1.97;;;12.80;93.20;;;;;;5093981;28;20427;-73
2021/05/04 01:31:34;;;;;;;4.47;1.70;;;12.80;93.20;;;;;;5089105;28;20929;-73
2021/05/04 01:33:59;;;;;;;2.13;1.70;;;12.90;92.50;;;;;;5075632;28;20466;-73
2021/05/04 01:36:25;;;;;;;2.90;2.07;;;13.00;91.90;;;;;;5085545;28;20647;-72
2021/05/04 01:38:51;;;;;;;8.33;1.90;;;13.00;92.20;;;;;;5083625;28;20166;-73
2021/05/04 01:41:16;;;;;;;1.97;1.80;;;12.90;91.90;;;;;;5089924;28;20253;-73
2021/05/04 01:43:42;;;;;;;2.47;1.83;;;13.00;91.30;;;;;;5076108;28;20198;-73
2021/05/04 01:46:08;;;;;;;2.80;2.20;;;13.00;90.40;;;;;;5076636;28;20172;-74
2021/05/04 01:48:33;;;;;;;6.33;2.30;;;13.10;90.60;;;;;;5079234;28;20178;-72
2021/05/04 01:50:59;;;;;;;4.73;2.17;;;13.10;89.80;;;;;;5063465;28;20538;-73
2021/05/04 01:53:25;;;;;;;3.37;1.50;;;13.20;88.90;;;;;;5082941;28;20349;-74
2021/05/04 01:55:50;;;;;;;2.57;1.83;;;13.20;87.60;;;;;;5079215;28;20604;-74
2021/05/04 01:58:17;;;;;;;4.07;2.20;;;13.10;86.60;;;;;;5091008;28;20182;-73
2021/05/04 02:00:43;;;;;;;5.03;2.40;;;13.20;83.70;;;;;;5090468;28;20529;-73
2021/05/04 02:03:08;;;;;;;10.93;2.00;;;13.20;83.80;;;;;;5077475;28;20518;-73
2021/05/04 02:05:34;;;;;;;6.40;2.10;;;13.20;82.40;;;;;;5087505;28;20517;-73
2021/05/04 02:07:59;;;;;;;5.10;2.20;;;13.30;81.60;;;;;;5091638;28;20666;-74
2021/05/04 02:10:25;;;;;;;4.40;1.63;;;13.20;81.50;;;;;;5080883;28;20174;-73
2021/05/04 02:12:50;;;;;;;7.47;2.00;;;13.20;82.30;;;;;;5075506;28;20654;-74
2021/05/04 02:15:16;;;;;;;2.40;2.10;;;13.20;80.00;;;;;;5072663;28;20205;-73
2021/05/04 02:17:42;;;;;;;4.90;1.37;;;13.20;75.50;;;;;;5067778;28;20658;-74
2021/05/04 02:20:08;;;;;;;1.60;1.43;;;13.20;79.30;;;;;;5091080;28;20440;-73
2021/05/04 02:22:34;;;;;;;5.10;2.00;;;13.10;79.20;;;;;;5081487;28;20172;-72
2021/05/04 02:25:00;;;;;;;3.20;1.73;;;12.80;84.20;;;;;;5075851;28;20453;-73
2021/05/04 02:27:26;;;;;;;14.30;2.30;;;12.60;90.60;;;;;;5075897;28;20205;-73
2021/05/04 02:29:52;;;;;;;6.30;1.70;;;12.60;91.90;;;;;;5092453;28;20423;-73
2021/05/04 02:32:17;;;;;;;1.73;1.20;;;12.30;97.70;;;;;;5070443;28;20211;-73
2021/05/04 02:34:43;;;;;;;2.60;1.77;;;12.10;99.90;;;;;;5073737;28;20610;-74
2021/05/04 02:37:09;;;;;;;2.70;1.93;;;11.90;99.90;;;;;;5092504;28;20183;-74
2021/05/04 02:39:34;;;;;;;3.30;1.50;;;11.80;99.90;;;;;;5080482;28;20177;-73
2021/05/04 02:42:00;;;;;;;2.07;1.93;;;11.40;99.90;;;;;;5086845;28;20173;-74
2021/05/04 02:44:25;;;;;;;9.00;1.70;;;11.00;99.90;;;;;;5087291;28;20759;-73
2021/05/04 02:46:51;;;;;;;5.60;1.63;;;11.00;99.90;;;;;;5071918;28;20208;-75
2021/05/04 02:49:16;;;;;;;3.23;1.63;;;10.80;99.90;;;;;;5087629;28;20180;-73
2021/05/04 02:51:43;;;;;;;3.30;2.07;;;10.70;99.90;;;;;;5089325;28;20178;-75
2021/05/04 02:54:09;;;;;;;2.30;1.40;;;10.50;99.90;;;;;;5082451;28;20239;-74
2021/05/04 02:56:35;;;;;;;2.20;2.00;;;10.40;99.90;;;;;;5090305;28;20928;-74
2021/05/04 02:59:00;;;;;;;4.77;2.77;;;10.40;99.90;;;;;;5068445;28;20177;-73
2021/05/04 03:01:26;;;;;;;2.23;1.77;;;10.20;99.90;;;;;;5083433;28;20241;-73
2021/05/04 03:03:52;;;;;;;2.10;1.63;;;10.20;99.90;;;;;;5085253;28;20252;-73
2021/05/04 03:06:18;;;;;;;5.33;2.40;;;10.20;99.90;;;;;;5072519;28;20249;-73
2021/05/04 03:08:43;;;;;;;3.77;2.13;;;10.10;99.90;;;;;;5077305;28;20559;-73
2021/05/04 03:11:09;;;;;;;11.43;7.67;;;10.00;99.90;;;;;;5085575;28;20222;-73
2021/05/04 03:13:34;;;;;;;1.60;1.50;;;10.00;99.90;;;;;;5081596;28;20205;-74
2021/05/04 03:16:00;;;;;;;1.97;1.77;;;9.90;99.90;;;;;;5071840;28;20163;-74
2021/05/04 03:18:26;;;;;;;2.80;1.80;;;9.70;99.90;;;;;;5090166;28;20270;-73
2021/05/04 03:20:52;;;;;;;2.07;1.63;;;9.80;99.90;;;;;;5089239;28;20873;-73
2021/05/04 03:23:19;;;;;;;4.73;2.00;;;9.70;99.90;;;;;;5074232;28;20198;-73
2021/05/04 03:25:46;;;;;;;2.47;2.27;;;9.70;99.90;;;;;;5072285;28;20818;-73
2021/05/04 03:28:13;;;;;;;2.27;1.73;;;9.60;99.90;;;;;;5076973;28;20799;-73
2021/05/04 03:30:39;;;;;;;1.63;1.50;;;9.70;99.90;;;;;;5087805;28;20420;-72
2021/05/04 03:33:05;;;;;;;2.50;1.63;;;9.70;99.90;;;;;;5086253;28;20428;-73
2021/05/04 03:35:31;;;;;;;3.37;2.03;;;9.70;99.90;;;;;;5090495;28;20932;-72
2021/05/04 03:37:57;;;;;;;5.00;1.80;;;9.50;99.90;;;;;;5074853;28;20423;-72
2021/05/04 03:40:22;;;;;;;4.10;1.83;;;9.60;99.90;;;;;;5075930;28;20433;-73
2021/05/04 03:42:48;;;;;;;4.13;1.60;;;9.50;99.90;;;;;;5082613;28;20194;-73
2021/05/04 03:45:14;;;;;;;3.00;1.40;;;9.60;99.90;;;;;;5054005;28;20274;-73
2021/05/04 03:47:41;;;;;;;1.97;1.77;;;9.50;99.90;;;;;;5068087;28;20205;-73
2021/05/04 03:50:09;;;;;;;2.97;1.70;;;9.40;99.90;;;;;;5044906;28;20421;-72
2021/05/04 03:52:35;;;;;;;3.00;1.80;;;9.50;99.90;;;;;;5052440;28;20469;-73
2021/05/04 03:55:01;;;;;;;1.80;1.60;;;9.40;99.90;;;;;;5071453;28;20492;-73
2021/05/04 03:57:26;;;;;;;1.83;1.73;;;9.40;99.90;;;;;;5071059;28;20193;-73
2021/05/04 03:59:52;;;;;;;5.90;2.13;;;9.50;99.90;;;;;;5068648;28;20436;-74
2021/05/04 04:02:18;;;;;;;1.93;1.60;;;9.40;99.90;;;;;;5078938;28;20573;-72
2021/05/04 04:04:43;;;;;;;4.60;1.70;;;9.40;99.90;;;;;;5078876;28;20208;-73
2021/05/04 04:07:09;;;;;;;2.83;2.30;;;9.40;99.90;;;;;;5071791;28;20202;-73
2021/05/04 04:09:35;;;;;;;6.67;1.60;;;9.40;99.90;;;;;;5061351;28;20252;-74
2021/05/04 04:12:00;;;;;;;4.70;1.83;;;9.40;99.90;;;;;;5051766;28;20232;-74
2021/05/04 04:14:26;;;;;;;3.13;2.07;;;9.40;99.90;;;;;;5071715;28;20281;-73
2021/05/04 04:16:52;;;;;;;8.53;2.30;;;9.30;99.90;;;;;;5083259;28;20710;-73
2021/05/04 04:19:17;;;;;;;1.90;1.80;;;9.30;99.90;;;;;;5091884;28;20196;-74
2021/05/04 04:21:43;;;;;;;2.80;1.70;;;9.30;99.90;;;;;;5089600;28;20177;-73
2021/05/04 04:24:08;;;;;;;2.90;1.60;;;9.30;99.90;;;;;;5076802;28;20216;-73
2021/05/04 04:26:34;;;;;;;1.87;1.77;;;9.30;99.90;;;;;;5087164;28;20197;-74
2021/05/04 04:29:00;;;;;;;3.57;2.07;;;9.20;99.90;;;;;;5080890;28;20774;-74
2021/05/04 04:31:26;;;;;;;2.37;1.73;;;9.20;99.90;;;;;;5075822;28;20188;-74
2021/05/04 04:33:51;;;;;;;2.60;1.53;;;9.20;99.90;;;;;;5078036;28;20193;-74
2021/05/04 04:36:17;;;;;;;2.23;1.70;;;9.30;99.90;;;;;;5065540;28;20166;-74
2021/05/04 04:38:42;;;;;;;2.97;1.67;;;9.20;99.90;;;;;;5076795;28;20182;-74
2021/05/04 04:41:08;;;;;;;1.80;1.53;;;9.20;99.90;;;;;;5059239;28;20174;-73
2021/05/04 04:43:33;;;;;;;2.70;2.03;;;9.10;99.90;;;;;;5078340;28;20205;-73
2021/05/04 04:45:59;;;;;;;4.03;1.73;;;9.10;99.90;;;;;;5078805;28;20202;-74
2021/05/04 04:48:24;;;;;;;3.93;1.70;;;9.10;99.90;;;;;;5077759;28;20682;-73
2021/05/04 04:50:50;;;;;;;2.27;1.80;;;9.10;99.90;;;;;;5077731;28;20185;-73
2021/05/04 04:53:15;;;;;;;6.03;2.00;;;9.10;99.90;;;;;;5078357;28;20198;-73
2021/05/04 04:55:41;;;;;;;2.50;1.70;;;9.10;99.90;;;;;;5078305;28;20883;-74
2021/05/04 04:58:07;;;;;;;4.60;1.90;;;9.10;99.90;;;;;;5059595;28;20186;-73
2021/05/04 05:00:32;;;;;;;2.43;1.60;;;9.10;99.90;;;;;;5077741;28;20792;-74
2021/05/04 05:02:58;;;;;;;2.70;1.70;;;9.10;99.90;;;;;;5078210;28;20178;-73
2021/05/04 05:05:24;;;;;;;2.37;1.97;;;9.10;99.90;;;;;;5078338;28;20184;-74
2021/05/04 05:07:49;;;;;;;2.50;1.70;;;9.10;99.90;;;;;;5078144;28;20894;-74
2021/05/04 05:10:15;;;;;;;1.83;1.67;;;9.10;99.90;;;;;;5078075;28;20280;-74
2021/05/04 05:12:40;;;;;;;2.17;1.60;;;9.10;99.90;;;;;;5078314;28;20173;-73
2021/05/04 05:15:07;;;;;;;2.47;1.93;;;9.00;99.90;;;;;;5070600;28;20268;-72
2021/05/04 05:17:33;;;;;;;4.50;1.83;;;9.10;99.90;;;;;;5077863;28;20182;-73
2021/05/04 05:19:58;;;;;;;1.97;1.80;;;9.10;99.90;;;;;;5077339;28;20522;-73
2021/05/04 05:22:28;;;;;;;2.23;1.40;;;9.10;99.90;;;;;;5078061;28;20416;-73
2021/05/04 05:24:55;;;;;;;2.30;1.37;;;9.20;99.90;;;;;;5060530;28;20198;-74
2021/05/04 05:27:20;;;;;;;4.67;1.87;;;9.10;99.90;;;;;;5076653;28;20448;-73
2021/05/04 05:29:46;;;;;;;5.90;1.90;;;9.10;99.90;;;;;;5079673;28;20428;-73
2021/05/04 05:32:12;;;;;;;3.53;1.50;;;9.10;99.90;;;;;;5090689;28;21094;-74
2021/05/04 05:34:38;;;;;;;5.80;1.77;;;9.20;99.90;;;;;;5091300;28;20209;-72
2021/05/04 05:37:04;;;;;;;3.37;1.83;;;9.30;99.90;;;;;;5064438;28;20273;-73
2021/05/04 05:39:30;;;;;;;1.67;1.57;;;9.30;99.90;;;;;;5055551;28;20510;-73
2021/05/04 05:41:55;;;;;;;2.87;1.67;;;9.20;99.90;;;;;;5075194;28;20670;-73
2021/05/04 05:44:21;;;;;;;1.43;1.30;;;9.20;99.90;;;;;;5085362;28;20276;-73
2021/05/04 05:46:47;;;;;;;2.23;1.50;;;9.20;99.90;;;;;;5090669;28;20233;-73
2021/05/04 05:49:13;;;;;;;2.07;1.70;;;9.30;99.90;;;;;;5088429;28;20428;-73
2021/05/04 05:51:39;;;;;;;1.67;1.53;;;9.30;99.90;;;;;;5060813;28;20174;-73
2021/05/04 05:54:04;;;;;;;1.70;1.60;;;9.40;99.90;;;;;;5066030;28;20264;-73
2021/05/04 05:56:30;;;;;;;1.67;1.20;;;9.40;99.90;;;;;;5056607;28;20416;-73
2021/05/04 05:58:55;;;;;;;1.93;1.47;;;9.40;99.90;;;;;;5078938;28;20179;-73
2021/05/04 06:01:21;;;;;;;2.70;1.47;;;9.40;99.90;;;;;;5054345;28;20170;-73
2021/05/04 06:03:47;;;;;;;1.93;1.30;;;9.50;99.90;;;;;;5094149;28;20212;-76
2021/05/04 06:06:12;;;;;;;1.50;1.30;;;9.40;99.90;;;;;;5089033;28;20165;-76
2021/05/04 06:08:38;;;;;;;1.80;1.50;;;9.60;99.90;;;;;;5087437;28;20205;-77
2021/05/04 06:11:03;;;;;;;2.47;1.40;;;9.70;99.90;;;;;;5055844;28;20204;-77
2021/05/04 06:13:29;;;;;;;1.80;1.17;;;9.60;99.90;;;;;;5072310;28;20193;-77
2021/05/04 06:15:54;;;;;;;2.40;1.60;;;9.70;99.90;;;;;;5073711;28;20593;-77
2021/05/04 06:18:20;;;;;;;1.43;1.33;;;9.60;99.90;;;;;;5072330;28;20665;-77
2021/05/04 06:20:45;;;;;;;4.37;1.27;;;9.70;99.90;;;;;;5077322;28;20177;-76
2021/05/04 06:23:11;;;;;;;2.90;1.30;;;9.60;99.90;;;;;;5092752;28;20192;-77
2021/05/04 06:25:37;;;;;;;1.87;1.60;;;9.70;99.90;;;;;;5079068;28;20174;-76
2021/05/04 06:28:06;;;;;;;3.80;1.80;;;9.70;99.90;;;;;;5065301;28;20200;-76
2021/05/04 06:30:35;;;;;;;1.50;1.40;;;9.60;99.90;;;;;;5072315;28;20651;-77
2021/05/04 06:33:08;;;;;;;1.90;1.43;;;9.70;99.90;;;;;;5090159;28;20861;-77
2021/05/04 06:35:36;;;;;;;5.10;1.47;;;9.70;99.90;;;;;;5091697;28;20535;-77
2021/05/04 06:38:05;;;;;;;1.63;1.40;;;9.80;99.90;;;;;;5075479;28;20511;-77
2021/05/04 06:40:32;;;;;;;2.37;1.70;;;9.80;99.90;;;;;;5083810;28;20426;-77
2021/05/04 06:42:57;;;;;;;2.30;1.30;;;9.80;99.90;;;;;;5054263;28;20424;-77
2021/05/04 06:45:25;;;;;;;2.80;1.60;;;9.90;99.90;;;;;;5066330;28;20507;-77
2021/05/04 06:47:50;;;;;;;2.40;1.57;;;9.90;99.90;;;;;;5080313;28;20919;-77
2021/05/04 06:50:16;;;;;;;2.10;1.17;;;9.80;99.90;;;;;;5079696;28;20526;-77
2021/05/04 06:52:41;;;;;;;2.60;1.90;;;9.90;99.90;;;;;;5082121;28;20179;-77
2021/05/04 06:55:07;;;;;;;2.07;1.87;;;9.90;99.90;;;;;;5089504;28;20573;-77
2021/05/04 06:57:33;;;;;;;1.37;1.27;;;10.10;99.90;;;;;;5085393;28;20182;-77
2021/05/04 06:59:58;;;;;;;1.23;1.13;;;10.00;99.90;;;;;;5058200;28;20499;-78
2021/05/04 07:02:24;;;;;;;1.60;1.40;;;10.20;99.90;;;;;;5084445;28;20203;-78
2021/05/04 07:04:50;;;;;;;1.97;1.63;;;10.30;99.90;;;;;;5087199;28;20636;-78
2021/05/04 07:07:15;;;;;;;1.30;1.20;;;10.20;99.90;;;;;;5093217;28;20189;-78
2021/05/04 07:09:41;;;;;;;2.50;1.83;;;10.30;99.90;;;;;;5088619;28;20181;-78
2021/05/04 07:12:07;;;;;;;1.80;1.43;;;10.20;99.90;;;;;;5082681;28;20177;-77
2021/05/04 07:14:33;;;;;;;1.30;1.10;;;10.10;99.90;;;;;;5049039;28;20825;-78
2021/05/04 07:17:02;;;;;;;2.47;1.37;;;10.10;99.90;;;;;;5083135;28;20439;-78
2021/05/04 07:19:28;;;;;;;2.70;1.30;;;10.20;99.90;;;;;;5075172;28;20185;-78
2021/05/04 07:21:55;;;;;;;1.50;1.40;;;10.30;99.90;;;;;;5063368;28;20423;-77
2021/05/04 07:24:20;;;;;;;1.20;1.10;;;10.30;99.90;;;;;;5059111;28;20450;-78
2021/05/04 07:26:46;;;;;;;2.07;1.60;;;10.30;99.90;;;;;;5057823;28;20451;-78
2021/05/04 07:29:11;;;;;;;1.70;1.40;;;10.30;99.90;;;;;;5079896;28;20197;-77
2021/05/04 07:31:37;;;;;;;1.43;1.33;;;10.30;99.90;;;;;;5059652;28;20167;-77
2021/05/04 07:34:03;;;;;;;1.80;1.40;;;10.40;99.90;;;;;;5072769;28;20205;-77
2021/05/04 07:36:30;;;;;;;2.07;1.00;;;10.20;99.90;;;;;;5087565;28;20408;-77
2021/05/04 07:38:57;;;;;;;2.03;1.37;;;10.30;99.90;;;;;;5057737;28;20200;-77
2021/05/04 07:41:24;;;;;;;3.70;1.80;;;10.40;99.90;;;;;;5056733;28;20493;-77
2021/05/04 07:43:49;;;;;;;1.37;1.27;;;10.40;99.90;;;;;;5085228;28;20454;-77
2021/05/04 07:46:15;;;;;;;1.40;1.30;;;10.60;99.90;;;;;;5070707;28;20496;-77
2021/05/04 07:48:40;;;;;;;1.73;1.20;;;10.60;99.90;;;;;;5034103;28;20571;-76
2021/05/04 07:51:06;;;;;;;1.20;1.10;;;10.50;99.90;;;;;;5066459;28;20175;-76
2021/05/04 07:53:32;;;;;;;4.33;2.40;;;10.60;99.90;;;;;;5048448;28;20199;-77
2021/05/04 07:55:58;;;;;;;1.60;1.30;;;10.70;99.90;;;;;;5073615;28;20169;-77
2021/05/04 07:58:23;;;;;;;3.67;1.10;;;10.80;99.90;;;;;;5070870;28;20527;-77
2021/05/04 08:00:49;;;;;;;1.50;1.10;;;10.90;99.90;;;;;;5075905;28;20177;-77
2021/05/04 08:03:15;;;;;;;1.83;1.07;;;10.90;99.90;;;;;;5080239;28;20312;-77
2021/05/04 08:05:41;;;;;;;1.30;1.20;;;11.00;99.90;;;;;;5072442;28;20228;-77
2021/05/04 08:08:07;;;;;;;1.53;1.40;;;11.00;99.90;;;;;;5059264;28;20969;-78
2021/05/04 08:10:34;;;;;;;1.57;1.00;;;11.10;99.90;;;;;;5057457;28;20170;-77
2021/05/04 08:13:02;;;;;;;2.30;1.20;;;11.10;99.90;;;;;;5091727;28;20456;-77
2021/05/04 08:15:28;;;;;;;1.67;1.20;;;11.10;99.90;;;;;;5089706;28;20443;-78
2021/05/04 08:17:58;;;;;;;1.77;1.37;;;11.10;99.90;;;;;;5058517;28;20400;-78
2021/05/04 08:20:28;;;;;;;2.23;1.20;;;11.20;99.90;;;;;;5048355;28;20236;-77
2021/05/04 08:22:54;;;;;;;2.70;1.30;;;11.20;99.90;;;;;;5064111;28;20430;-77
2021/05/04 08:25:20;;;;;;;1.40;1.20;;;11.10;99.90;;;;;;5090145;28;20539;-78
2021/05/04 08:27:46;;;;;;;1.50;1.40;;;11.00;99.90;;;;;;5062218;28;20542;-78
2021/05/04 08:30:12;;;;;;;1.20;1.07;;;11.10;99.90;;;;;;5084595;28;20182;-78
2021/05/04 08:32:37;;;;;;;2.57;1.33;;;11.20;99.90;;;;;;5060488;28;20796;-77
2021/05/04 08:35:03;;;;;;;2.70;1.40;;;11.20;99.90;;;;;;5069411;28;20450;-77
2021/05/04 08:37:29;;;;;;;2.70;1.33;;;11.20;99.90;;;;;;5077689;28;20183;-78
2021/05/04 08:39:54;;;;;;;3.30;1.80;;;11.30;99.90;;;;;;5091344;28;20433;-77
2021/05/04 08:42:20;;;;;;;2.03;1.70;;;11.10;99.90;;;;;;5090164;28;20177;-78
2021/05/04 08:44:52;;;;;;;1.60;1.37;;;11.20;99.90;;;;;;5056681;28;20221;-77
2021/05/04 08:47:20;;;;;;;4.60;1.30;;;11.00;99.90;;;;;;5056929;28;20206;-77
2021/05/04 08:49:46;;;;;;;1.97;1.70;;;11.10;99.90;;;;;;5064864;28;20471;-78
2021/05/04 08:52:12;;;;;;;3.87;1.33;;;11.00;99.90;;;;;;5064361;28;20440;-78
2021/05/04 08:54:37;;;;;;;1.60;1.50;;;11.00;99.90;;;;;;5072759;28;20441;-78
2021/05/04 08:57:04;;;;;;;1.83;1.30;;;11.20;99.90;;;;;;5070886;28;20572;-77
2021/05/04 08:59:30;;;;;;;1.70;1.50;;;11.50;99.90;;;;;;5075704;28;20189;-77
2021/05/04 09:01:55;;;;;;;1.83;1.40;;;11.70;99.90;;;;;;5072355;28;21231;-78
2021/05/04 09:04:35;;;;;;;1.97;1.87;;;11.80;99.90;;;;;;5091101;28;20470;-77
2021/05/04 09:07:18;;;;;;;1.60;1.40;;;12.20;99.90;;;;;;5077733;28;20282;-76
2021/05/04 09:10:15;;;;;;;4.03;2.00;;;12.30;99.90;;;;;;5084834;28;20498;-77
2021/05/04 09:15:41;;;;;;;3.77;1.77;;;12.30;99.90;;;;;;5073560;28;20473;-77
2021/05/04 09:21:28;;;;;;;2.43;1.63;;;12.30;99.90;;;;;;5077992;28;20436;-77
2021/05/04 09:23:54;;;;;;;3.30;1.50;;;12.30;99.90;;;;;;5067348;28;20838;-76
2021/05/04 09:26:22;;;;;;;1.87;1.33;;;12.40;99.90;;;;;;5059903;28;20511;-77
2021/05/04 09:28:52;;;;;;;1.67;1.43;;;12.30;99.90;;;;;;5094952;28;20228;-76
2021/05/04 09:31:22;;;;;;;6.23;1.30;;;12.40;99.90;;;;;;5085611;28;20490;-77
2021/05/04 09:33:48;;;;;;;3.33;0.90;;;12.40;99.90;;;;;;5071740;28;20443;-78
2021/05/04 09:36:39;;;;;;;2.37;1.20;;;12.30;99.90;;;;;;5094810;28;20490;-78
2021/05/04 09:39:06;;;;;;;2.00;1.30;;;12.40;99.90;;;;;;5060323;28;20178;-77
2021/05/04 09:41:32;;;;;;;1.10;0.90;;;12.20;99.90;;;;;;5072669;28;20432;-78
2021/05/04 09:43:58;;;;;;;7.63;1.10;;;12.20;99.90;;;;;;5069476;28;21032;-77
2021/05/04 09:46:47;;;;;;;3.43;1.20;;;12.20;99.90;;;;;;5041270;28;20445;-77
2021/05/04 09:49:37;;;;;;;3.40;1.20;;;12.30;99.90;;;;;;5071733;28;20209;-77
2021/05/04 09:52:31;;;;;;;4.70;1.40;;;12.70;99.90;;;;;;5050430;28;20445;-77
2021/05/04 09:55:10;;;;;;;3.20;1.30;;;13.10;99.90;;;;;;5078122;28;20436;-77
2021/05/04 09:57:44;;;;;;;2.43;0.90;;;13.50;99.90;;;;;;5060144;28;20413;-78
2021/05/04 10:00:13;;;;;;;2.57;1.17;;;13.80;99.90;;;;;;5078558;28;20396;-77
2021/05/04 10:02:39;;;;;;;1.33;1.07;;;13.80;99.90;;;;;;5073863;28;20432;-78
2021/05/04 10:05:07;;;;;;;2.80;1.20;;;14.10;99.90;;;;;;5046657;28;20440;-78
2021/05/04 10:07:34;;;;;;;4.20;1.40;;;14.20;99.90;;;;;;5076444;28;20444;-78
2021/05/04 10:10:01;;;;;;;2.10;1.50;;;14.20;99.90;;;;;;5076586;28;20904;-78
2021/05/04 10:12:29;;;;;;;4.60;1.20;;;13.80;99.90;;;;;;5076117;28;20425;-76
2021/05/04 10:15:06;;;;;;;4.97;1.80;;;13.40;99.90;;;;;;5071205;28;20436;-73
2021/05/04 10:17:33;;;;;;;4.07;1.30;;;13.50;99.90;;;;;;5073812;28;20439;-75
2021/05/04 10:20:05;;;;;;;4.70;1.43;;;13.60;99.90;;;;;;5068546;28;20420;-74
2021/05/04 10:22:31;;;;;;;2.80;1.90;;;13.80;99.90;;;;;;5073819;28;20787;-74
2021/05/04 10:24:57;;;;;;;4.23;1.63;;;13.60;99.90;;;;;;5064083;28;20443;-74
2021/05/04 10:27:24;;;;;;;5.50;1.70;;;13.80;99.90;;;;;;5092123;28;20530;-75
2021/05/04 10:29:54;;;;;;;9.10;1.80;;;14.20;99.90;;;;;;5087930;28;20415;-74
2021/05/04 10:32:51;;;;;;;2.60;1.87;;;14.60;99.90;;;;;;5072298;28;20806;-75
2021/05/04 10:35:29;;;;;;;4.40;1.73;;;14.70;99.90;;;;;;5072597;28;20444;-75
2021/05/04 10:37:57;;;;;;;3.73;1.50;;;14.80;99.90;;;;;;5072688;28;20428;-74
2021/05/04 10:40:29;;;;;;;5.63;1.57;;;14.90;99.90;;;;;;5056316;28;20421;-75
2021/05/04 10:42:55;;;;;;;3.20;1.80;;;14.60;99.90;;;;;;5074453;28;20420;-75
2021/05/04 10:45:20;;;;;;;7.13;2.13;;;14.20;99.90;;;;;;5082450;28;20552;-75
2021/05/04 10:47:48;;;;;;;11.20;3.00;;;14.30;99.90;;;;;;5056275;28;20674;-75
2021/05/04 10:50:24;;;;;;;12.00;2.73;;;14.10;99.90;;;;;;5078231;28;20219;-76
2021/05/04 10:53:00;;;;;;;30.50;4.10;;;13.70;99.90;;;;;;5078799;28;20415;-76
2021/05/04 10:55:51;;;;;;;18.87;3.20;;;13.70;99.90;;;;;;5054414;28;20409;-76
2021/05/04 10:58:29;;;;;;;11.40;3.77;;;13.90;99.90;;;;;;5047978;28;20425;-76
2021/05/04 11:01:01;;;;;;;17.73;4.57;;;14.10;99.90;;;;;;5069982;28;20849;-76
2021/05/04 11:03:32;;;;;;;53.47;5.20;;;14.10;99.90;;;;;;5079139;28;20479;-76
2021/05/04 11:05:58;;;;;;;32.50;5.20;;;14.10;99.90;;;;;;5093266;28;20975;-75
2021/05/04 11:08:44;;;;;;;24.43;3.07;;;14.50;99.90;;;;;;5072972;28;20451;-75
2021/05/04 11:11:24;;;;;;;11.90;2.70;;;14.80;99.90;;;;;;5074930;28;20420;-76
2021/05/04 11:13:50;;;;;;;18.60;4.63;;;14.80;99.90;;;;;;5073119;28;20438;-77
2021/05/04 11:16:29;;;;;;;42.60;5.60;;;14.80;99.90;;;;;;5072429;28;20503;-77
2021/05/04 11:19:25;;;;;;;26.97;5.10;;;14.70;99.90;;;;;;5082990;28;20416;-77
2021/05/04 11:21:51;;;;;;;58.47;7.80;;;14.30;99.90;;;;;;5071480;28;20821;-77
2021/05/04 11:24:22;;;;;;;55.20;7.70;;;14.50;99.90;;;;;;5071456;28;20436;-77
2021/05/04 11:26:53;;;;;;;61.30;7.40;;;14.90;99.90;;;;;;5074621;28;20491;-77
2021/05/04 11:29:37;;;;;;;37.57;7.10;;;15.00;99.90;;;;;;5055629;28;20417;-79
2021/05/04 11:32:13;;;;;;;28.20;4.27;;;15.20;99.90;;;;;;5072047;28;20910;-77
2021/05/04 11:34:46;;;;;;;27.40;5.00;;;15.40;99.90;;;;;;5072605;28;20452;-77
2021/05/04 11:37:23;;;;;;;18.50;3.40;;;14.60;99.90;;;;;;5071999;28;20417;-77
2021/05/04 11:39:52;;;;;;;26.70;3.60;;;14.40;99.90;;;;;;5074691;28;20830;-78
2021/05/04 11:42:19;;;;;;;27.13;4.40;;;14.60;99.90;;;;;;5059546;28;20440;-78
2021/05/04 11:44:45;;;;;;;36.40;6.33;;;14.60;99.90;;;;;;5074921;28;20444;-78
2021/05/04 11:47:41;;;;;;;32.80;5.57;;;14.70;99.90;;;;;;5073612;28;20460;-76
2021/05/04 11:50:11;;;;;;;44.50;7.50;;;14.70;99.90;;;;;;5073114;28;20190;-77
2021/05/04 11:52:38;;;;;;;77.07;11.47;;;14.40;99.90;;;;;;5072199;28;20428;-77
2021/05/04 11:55:09;;;;;;;62.30;10.07;;;14.80;99.90;;;;;;5071790;28;20432;-77
2021/05/04 11:57:35;;;;;;;85.07;9.53;;;14.70;99.90;;;;;;5071925;28;20405;-77
2021/05/04 12:00:02;;;;;;;53.57;8.17;;;14.80;99.90;;;;;;5071545;28;20407;-77
2021/05/04 12:02:32;;;;;;;57.23;7.60;;;15.20;99.90;;;;;;5071876;28;20400;-77
2021/05/04 12:04:58;;;;;;;36.33;5.73;;;15.00;99.90;;;;;;5072076;28;20420;-76
2021/05/04 12:07:41;;;;;;;48.63;5.97;;;15.00;99.90;;;;;;5072033;28;20460;-77
2021/05/04 12:10:32;;;;;;;57.20;9.53;;;14.80;99.90;;;;;;5035244;28;20441;-77
2021/05/04 12:13:09;;;;;;;27.83;4.73;;;15.00;99.90;;;;;;5035433;28;20433;-77
2021/05/04 12:15:37;;;;;;;15.30;4.37;;;15.20;99.90;;;;;;5066066;28;20788;-78
2021/05/04 12:18:13;;;;;;;25.43;4.57;;;15.00;99.90;;;;;;5073370;28;20451;-77
2021/05/04 12:20:40;;;;;;;23.83;5.40;;;15.20;99.90;;;;;;5053064;28;20435;-76
2021/05/04 12:23:08;;;;;;;28.80;4.77;;;14.70;99.90;;;;;;5071769;28;20759;-76
2021/05/04 12:25:51;;;;;;;39.37;5.43;;;14.90;99.90;;;;;;5071285;28;20504;-76
2021/05/04 12:28:22;;;;;;;33.50;5.83;;;14.80;99.90;;;;;;5035826;28;20463;-77
2021/05/04 12:30:52;;;;;;;50.50;7.13;;;14.90;97.70;;;;;;5060423;28;20421;-78
2021/05/04 12:33:19;;;;;;;40.10;7.20;;;15.10;99.60;;;;;;5073274;28;20511;-78
2021/05/04 12:35:53;;;;;;;49.10;6.50;;;14.90;97.60;;;;;;5073616;28;20420;-77
2021/05/04 12:38:24;;;;;;;61.20;8.07;;;15.10;99.20;;;;;;5077463;28;20450;-78
2021/05/04 12:43:43;;;;;;;51.73;6.50;;;15.20;97.80;;;;;;5077190;28;20505;-79
2021/05/04 12:46:10;;;;;;;51.73;7.30;;;15.40;96.30;;;;;;5060122;28;20900;-78
2021/05/04 12:48:38;;;;;;;47.00;5.90;;;15.70;96.00;;;;;;5059787;28;20460;-78
2021/05/04 12:51:12;;;;;;;37.30;7.07;;;16.20;95.30;;;;;;5058833;28;20445;-75
2021/05/04 12:53:40;;;;;;;65.40;7.33;;;15.80;91.40;;;;;;5062975;28;20472;-75
2021/05/04 12:56:08;;;;;;;65.20;8.40;;;15.80;91.80;;;;;;5069480;28;20424;-75
2021/05/04 12:59:00;;;;;;;42.93;5.63;;;16.30;91.50;;;;;;5057342;28;20424;-76
2021/05/04 13:01:50;;;;;;;52.40;6.90;;;16.30;91.00;;;;;;5074957;28;20404;-76